Time;durP1;ratioP1;P1;durP2;ratioP2;P2;SDS_P1;SDS_P2;PMS_P1;PMS_P2;Temp;Humidity;BMP_temperature;BMP_pressure;BME280_temperature;BME280_humidity;BME280_pressure;Samples;Min_cycle;Max_cycle;Signal;HPM_P1;HPM_P2
2021/12/12 00:00:46;;;;;;;;;18.00;15.67;;;;;;;;4909174;29;45532;-86
2021/12/12 00:03:21;;;;;;;;;12.67;12.67;;;;;;;;4926302;28;45698;-86
2021/12/12 00:05:54;;;;;;;;;19.33;14.33;;;;;;;;4915525;28;45518;-85
2021/12/12 00:08:21;;;;;;;;;13.67;13.00;;;;;;;;4930999;28;45444;-85
2021/12/12 00:10:48;;;;;;;;;14.00;12.00;;;;;;;;4898460;28;46991;-85
2021/12/12 00:13:16;;;;;;;;;14.00;14.00;;;;;;;;4930220;28;45428;-85
2021/12/12 00:15:47;;;;;;;;;16.00;14.67;;;;;;;;4909678;28;45442;-85
2021/12/12 00:18:13;;;;;;;;;16.67;13.33;;;;;;;;4910692;29;45686;-85
2021/12/12 00:20:38;;;;;;;;;16.33;14.00;;;;;;;;4910155;29;47071;-85
2021/12/12 00:23:05;;;;;;;;;17.67;14.00;;;;;;;;4911192;29;46043;-85
2021/12/12 00:25:31;;;;;;;;;14.67;13.00;;;;;;;;4910158;29;45377;-86
2021/12/12 00:27:57;;;;;;;;;12.67;12.33;;;;;;;;4909379;29;45501;-87
2021/12/12 00:30:23;;;;;;;;;13.00;13.00;;;;;;;;4909641;29;46934;-86
2021/12/12 00:32:50;;;;;;;;;10.33;10.33;;;;;;;;4910949;28;45315;-86
2021/12/12 00:35:16;;;;;;;;;14.67;13.00;;;;;;;;4909165;29;45441;-85
2021/12/12 00:37:42;;;;;;;;;11.67;10.33;;;;;;;;4910946;28;44899;-86
2021/12/12 00:40:11;;;;;;;;;15.67;13.33;;;;;;;;4910049;29;47380;-85
2021/12/12 00:42:37;;;;;;;;;13.33;13.00;;;;;;;;4908567;29;45442;-86
2021/12/12 00:45:06;;;;;;;;;14.00;12.67;;;;;;;;4910420;29;45823;-86
2021/12/12 00:47:32;;;;;;;;;15.33;13.33;;;;;;;;4910494;28;45767;-85
2021/12/12 00:50:04;;;;;;;;;15.00;13.33;;;;;;;;4909971;29;47598;-86
2021/12/12 00:52:30;;;;;;;;;13.33;13.00;;;;;;;;4910964;29;45400;-86
2021/12/12 00:54:55;;;;;;;;;9.67;9.33;;;;;;;;4908927;28;45520;-86
2021/12/12 00:57:21;;;;;;;;;11.67;11.00;;;;;;;;4910446;29;45434;-86
2021/12/12 00:59:47;;;;;;;;;15.00;11.33;;;;;;;;4910151;29;47445;-86
2021/12/12 01:02:16;;;;;;;;;12.00;12.00;;;;;;;;4910208;29;45434;-87
2021/12/12 01:04:45;;;;;;;;;13.00;9.00;;;;;;;;4893442;28;45788;-86
2021/12/12 01:07:13;;;;;;;;;12.33;12.33;;;;;;;;4909147;29;45510;-85
2021/12/12 01:09:42;;;;;;;;;12.67;12.67;;;;;;;;4909311;29;46897;-85
2021/12/12 01:12:10;;;;;;;;;11.00;11.00;;;;;;;;4912888;29;45749;-84
2021/12/12 01:14:41;;;;;;;;;7.67;7.33;;;;;;;;4911522;28;45561;-84
2021/12/12 01:17:09;;;;;;;;;9.33;9.33;;;;;;;;4911230;28;45579;-85
2021/12/12 01:19:43;;;;;;;;;6.33;6.33;;;;;;;;4908663;29;47493;-85
2021/12/12 01:22:17;;;;;;;;;9.33;9.33;;;;;;;;4909270;29;45834;-85
2021/12/12 01:24:45;;;;;;;;;7.33;7.33;;;;;;;;4911249;28;45928;-85
2021/12/12 01:27:10;;;;;;;;;9.00;7.33;;;;;;;;4909984;29;45563;-86
2021/12/12 01:29:36;;;;;;;;;8.00;7.00;;;;;;;;4908534;29;47392;-85
2021/12/12 01:32:04;;;;;;;;;10.33;9.00;;;;;;;;4908534;29;45735;-86
2021/12/12 01:34:30;;;;;;;;;4.67;4.67;;;;;;;;4906605;29;45426;-85
2021/12/12 01:39:55;;;;;;;;;7.00;7.00;;;;;;;;4908996;28;45456;-86
2021/12/12 01:42:20;;;;;;;;;7.00;7.00;;;;;;;;4907981;29;45439;-85
2021/12/12 01:44:48;;;;;;;;;5.33;5.33;;;;;;;;4909352;29;45595;-86
2021/12/12 01:47:28;;;;;;;;;6.00;6.00;;;;;;;;4909620;29;45498;-85
2021/12/12 01:49:55;;;;;;;;;6.00;6.00;;;;;;;;4908122;29;48017;-85
2021/12/12 01:52:22;;;;;;;;;6.33;6.00;;;;;;;;4908130;29;45428;-85
2021/12/12 01:54:50;;;;;;;;;4.67;4.00;;;;;;;;4909546;29;45341;-84
2021/12/12 01:57:19;;;;;;;;;4.00;3.00;;;;;;;;4909796;29;44785;-85
2021/12/12 01:59:45;;;;;;;;;6.00;6.00;;;;;;;;4912534;28;46260;-84
2021/12/12 02:02:12;;;;;;;;;5.33;4.00;;;;;;;;4911139;28;45858;-85
2021/12/12 02:04:40;;;;;;;;;3.67;3.67;;;;;;;;4908604;29;44809;-85
2021/12/12 02:07:07;;;;;;;;;6.00;6.00;;;;;;;;4909104;29;45388;-85
2021/12/12 02:09:33;;;;;;;;;4.67;3.33;;;;;;;;4908460;29;45785;-85
2021/12/12 02:11:59;;;;;;;;;7.00;4.00;;;;;;;;4909357;29;45457;-86
2021/12/12 02:14:26;;;;;;;;;3.00;3.00;;;;;;;;4911161;29;45472;-86
2021/12/12 02:16:57;;;;;;;;;5.33;5.33;;;;;;;;4909341;29;45503;-85
2021/12/12 02:19:31;;;;;;;;;7.33;4.00;;;;;;;;4908540;29;47460;-85
2021/12/12 02:38:29;;;;;;;;;3.00;3.00;;;;;;;;4911468;29;45612;-86
2021/12/12 02:40:58;;;;;;;;;4.00;4.00;;;;;;;;4925696;28;47563;-86
2021/12/12 02:43:25;;;;;;;;;3.33;3.33;;;;;;;;4912176;29;45836;-86
2021/12/12 02:45:56;;;;;;;;;3.00;3.00;;;;;;;;4908796;29;45390;-85
2021/12/12 02:48:26;;;;;;;;;6.00;4.00;;;;;;;;4895154;28;45557;-85
2021/12/12 02:50:54;;;;;;;;;6.00;6.00;;;;;;;;4929257;28;45835;-86
2021/12/12 02:53:21;;;;;;;;;4.00;4.00;;;;;;;;4911511;28;45465;-85
2021/12/12 02:55:49;;;;;;;;;7.00;4.67;;;;;;;;4911853;28;45831;-85
2021/12/12 02:58:16;;;;;;;;;3.33;3.33;;;;;;;;4912950;28;45468;-85
2021/12/12 03:00:48;;;;;;;;;4.67;4.67;;;;;;;;4912766;28;48316;-84
2021/12/12 03:03:14;;;;;;;;;4.00;4.00;;;;;;;;4911120;28;45404;-85
2021/12/12 03:05:41;;;;;;;;;5.33;5.33;;;;;;;;4911624;28;45439;-85
2021/12/12 03:08:07;;;;;;;;;6.00;4.00;;;;;;;;4912093;28;45783;-85
2021/12/12 03:10:35;;;;;;;;;8.67;7.00;;;;;;;;4929502;28;46080;-84
2021/12/12 03:13:00;;;;;;;;;5.33;5.33;;;;;;;;4912871;28;45831;-84
2021/12/12 03:15:27;;;;;;;;;4.00;3.67;;;;;;;;4915445;28;45472;-85
2021/12/12 03:17:54;;;;;;;;;3.33;3.33;;;;;;;;4912704;28;44866;-85
2021/12/12 03:20:26;;;;;;;;;4.67;4.67;;;;;;;;4909127;28;47152;-85
2021/12/12 03:23:00;;;;;;;;;2.67;2.67;;;;;;;;4926337;28;45494;-86
2021/12/12 03:25:25;;;;;;;;;4.00;4.00;;;;;;;;4908978;28;45608;-86
2021/12/12 03:27:51;;;;;;;;;4.00;3.00;;;;;;;;4908473;28;45422;-86
2021/12/12 03:30:17;;;;;;;;;2.00;2.00;;;;;;;;4926827;28;46111;-86
2021/12/12 03:32:42;;;;;;;;;5.33;5.33;;;;;;;;4927541;28;45434;-86
2021/12/12 03:35:08;;;;;;;;;6.00;6.00;;;;;;;;4908951;28;45401;-86
2021/12/12 03:37:34;;;;;;;;;6.33;6.33;;;;;;;;4910084;28;45449;-86
2021/12/12 03:40:04;;;;;;;;;9.00;6.33;;;;;;;;4909320;28;48307;-86
2021/12/12 03:42:30;;;;;;;;;7.67;6.33;;;;;;;;4910091;28;45445;-86
2021/12/12 03:44:56;;;;;;;;;7.00;6.00;;;;;;;;4909354;28;45543;-85
2021/12/12 03:47:30;;;;;;;;;6.67;6.67;;;;;;;;4926808;28;45531;-85
2021/12/12 03:49:56;;;;;;;;;7.00;7.00;;;;;;;;4905152;29;47425;-85
2021/12/12 03:52:22;;;;;;;;;8.00;8.00;;;;;;;;4899567;29;45862;-86
2021/12/12 03:54:49;;;;;;;;;7.00;7.00;;;;;;;;4904702;29;45736;-84
2021/12/12 03:57:16;;;;;;;;;10.33;9.00;;;;;;;;4919833;28;45326;-86
2021/12/12 03:59:42;;;;;;;;;9.33;8.67;;;;;;;;4905485;29;47325;-86
2021/12/12 04:02:07;;;;;;;;;8.33;8.00;;;;;;;;4908023;29;45488;-85
2021/12/12 04:04:35;;;;;;;;;9.00;8.33;;;;;;;;4905643;29;45455;-86
2021/12/12 04:07:02;;;;;;;;;8.00;8.00;;;;;;;;4905696;29;44853;-85
2021/12/12 04:09:27;;;;;;;;;10.67;9.67;;;;;;;;4904642;29;46992;-86
2021/12/12 04:12:02;;;;;;;;;10.00;9.00;;;;;;;;4905696;29;45905;-85
2021/12/12 04:14:28;;;;;;;;;10.67;10.67;;;;;;;;4909132;29;45465;-85
2021/12/12 04:19:58;;;;;;;;;9.67;8.33;;;;;;;;4910435;29;45806;-86
2021/12/12 04:22:24;;;;;;;;;9.67;9.00;;;;;;;;4909820;29;45430;-85
2021/12/12 04:24:51;;;;;;;;;13.67;11.67;;;;;;;;4910331;29;44713;-84
2021/12/12 04:27:16;;;;;;;;;9.00;9.00;;;;;;;;4908660;29;46013;-85
2021/12/12 04:29:43;;;;;;;;;12.00;12.00;;;;;;;;4907124;29;47203;-85
2021/12/12 04:32:14;;;;;;;;;13.67;12.67;;;;;;;;4911423;28;45636;-84
2021/12/12 04:34:41;;;;;;;;;12.00;12.00;;;;;;;;4910966;29;45350;-85
2021/12/12 04:37:08;;;;;;;;;14.00;12.67;;;;;;;;4912554;29;45365;-84
2021/12/12 04:39:36;;;;;;;;;11.67;10.00;;;;;;;;4912069;29;47196;-85
2021/12/12 04:42:14;;;;;;;;;11.67;11.67;;;;;;;;4913547;29;45395;-85
2021/12/12 04:44:40;;;;;;;;;13.67;9.00;;;;;;;;4910759;29;45370;-84
2021/12/12 04:50:13;;;;;;;;;14.67;13.00;;;;;;;;4923436;28;45423;-86
2021/12/12 04:52:51;;;;;;;;;13.67;13.00;;;;;;;;4911408;28;45416;-86
2021/12/12 04:55:28;;;;;;;;;17.67;13.00;;;;;;;;4912128;28;45460;-86
2021/12/12 04:58:03;;;;;;;;;13.00;13.00;;;;;;;;4912112;28;45716;-86
2021/12/12 05:00:31;;;;;;;;;15.00;13.33;;;;;;;;4929270;28;45378;-86
2021/12/12 05:03:08;;;;;;;;;14.33;9.67;;;;;;;;4914449;28;45682;-85
2021/12/12 05:05:42;;;;;;;;;15.00;13.00;;;;;;;;4916395;28;45405;-85
2021/12/12 05:08:31;;;;;;;;;13.33;13.33;;;;;;;;4932647;28;44824;-86
2021/12/12 05:11:04;;;;;;;;;12.00;12.00;;;;;;;;4913961;28;48600;-85
2021/12/12 05:13:42;;;;;;;;;11.00;9.33;;;;;;;;4912962;28;45753;-86
2021/12/12 05:16:10;;;;;;;;;17.00;15.00;;;;;;;;4913321;28;45406;-86
2021/12/12 05:18:37;;;;;;;;;19.33;14.00;;;;;;;;4912909;28;45386;-86
2021/12/12 05:21:04;;;;;;;;;16.00;15.00;;;;;;;;4911639;28;47421;-86
2021/12/12 05:23:31;;;;;;;;;14.00;12.33;;;;;;;;4912288;28;45722;-86
2021/12/12 05:26:03;;;;;;;;;13.33;10.67;;;;;;;;4928360;28;45709;-86
2021/12/12 05:28:34;;;;;;;;;15.00;15.00;;;;;;;;4912333;28;45460;-85
2021/12/12 05:31:01;;;;;;;;;15.00;15.00;;;;;;;;4913944;28;47429;-85
2021/12/12 05:33:27;;;;;;;;;12.33;12.00;;;;;;;;4912796;28;46067;-85
2021/12/12 05:35:53;;;;;;;;;13.67;12.00;;;;;;;;4912024;28;45365;-84
2021/12/12 05:38:20;;;;;;;;;16.33;14.67;;;;;;;;4912394;28;45430;-85
2021/12/12 05:40:46;;;;;;;;;14.67;13.00;;;;;;;;4911247;28;47539;-84
2021/12/12 05:43:13;;;;;;;;;15.33;13.67;;;;;;;;4912341;28;45773;-84
2021/12/12 05:45:38;;;;;;;;;17.67;14.00;;;;;;;;4913431;28;45482;-85
2021/12/12 05:48:05;;;;;;;;;13.00;12.33;;;;;;;;4928621;28;45514;-84
2021/12/12 05:50:30;;;;;;;;;19.67;14.67;;;;;;;;4927305;28;45496;-85
2021/12/12 05:52:56;;;;;;;;;16.00;16.00;;;;;;;;4928058;28;44648;-85
2021/12/12 05:55:24;;;;;;;;;16.33;12.33;;;;;;;;4927833;28;45340;-86
2021/12/12 05:57:58;;;;;;;;;10.00;10.00;;;;;;;;4912189;28;45534;-85
2021/12/12 06:00:32;;;;;;;;;16.67;14.67;;;;;;;;4909531;28;46876;-85
2021/12/12 06:02:58;;;;;;;;;14.33;13.67;;;;;;;;4910418;29;45775;-85
2021/12/12 06:05:23;;;;;;;;;18.00;14.33;;;;;;;;4910063;29;45723;-85
2021/12/12 06:07:49;;;;;;;;;20.00;18.33;;;;;;;;4894487;29;45365;-85
2021/12/12 06:10:15;;;;;;;;;14.00;14.00;;;;;;;;4910261;28;47134;-85
2021/12/12 06:12:42;;;;;;;;;18.00;13.00;;;;;;;;4910804;29;45516;-86
2021/12/12 06:15:09;;;;;;;;;20.00;17.33;;;;;;;;4894267;28;45432;-85
2021/12/12 06:17:40;;;;;;;;;15.00;14.33;;;;;;;;4892850;29;45434;-86
2021/12/12 06:20:07;;;;;;;;;12.67;11.33;;;;;;;;4909519;29;45649;-86
2021/12/12 06:22:32;;;;;;;;;16.67;15.00;;;;;;;;4909717;29;45485;-86
2021/12/12 06:24:58;;;;;;;;;21.33;13.33;;;;;;;;4893037;29;45411;-86
2021/12/12 06:27:23;;;;;;;;;11.00;10.33;;;;;;;;4894810;29;45390;-84
2021/12/12 06:29:50;;;;;;;;;11.33;11.33;;;;;;;;4893082;29;46815;-84
2021/12/12 06:32:15;;;;;;;;;15.00;14.00;;;;;;;;4910455;29;45165;-85
2021/12/12 06:34:41;;;;;;;;;13.00;13.00;;;;;;;;4891017;29;45415;-85
2021/12/12 06:37:06;;;;;;;;;14.67;13.00;;;;;;;;4893207;29;45410;-85
2021/12/12 06:39:32;;;;;;;;;12.00;12.00;;;;;;;;4891044;29;46983;-86
2021/12/12 06:41:58;;;;;;;;;12.33;10.00;;;;;;;;4908718;29;45907;-85
2021/12/12 06:44:23;;;;;;;;;14.00;12.33;;;;;;;;4917621;28;45413;-85
2021/12/12 06:49:52;;;;;;;;;17.67;12.33;;;;;;;;4927958;28;46566;-86
2021/12/12 06:52:18;;;;;;;;;10.00;9.67;;;;;;;;4909726;28;45811;-86
2021/12/12 06:54:45;;;;;;;;;13.00;10.00;;;;;;;;4912921;28;45453;-84
2021/12/12 06:57:12;;;;;;;;;15.00;13.00;;;;;;;;4930752;28;45540;-85
2021/12/12 06:59:38;;;;;;;;;13.67;10.67;;;;;;;;4911667;28;48271;-85
2021/12/12 07:02:05;;;;;;;;;14.00;14.00;;;;;;;;4927481;28;45405;-86
2021/12/12 07:04:31;;;;;;;;;10.33;10.33;;;;;;;;4926906;28;45356;-86
2021/12/12 07:06:58;;;;;;;;;14.67;10.33;;;;;;;;4911024;28;45321;-85
2021/12/12 07:09:24;;;;;;;;;13.00;11.67;;;;;;;;4910695;28;46957;-85
2021/12/12 07:11:49;;;;;;;;;10.33;8.67;;;;;;;;4909431;28;45732;-85
2021/12/12 07:14:15;;;;;;;;;15.33;11.00;;;;;;;;4926811;28;45709;-86
2021/12/12 07:16:42;;;;;;;;;16.33;11.00;;;;;;;;4927957;28;45592;-85
2021/12/12 07:19:08;;;;;;;;;10.00;9.00;;;;;;;;4926684;28;45425;-85
2021/12/12 07:21:33;;;;;;;;;9.00;9.00;;;;;;;;4909853;28;45429;-86
2021/12/12 07:24:00;;;;;;;;;11.67;9.33;;;;;;;;4927771;28;45337;-85
2021/12/12 07:26:25;;;;;;;;;9.67;9.33;;;;;;;;4927763;28;45703;-85
2021/12/12 07:28:52;;;;;;;;;12.67;12.67;;;;;;;;4909159;28;47622;-85
2021/12/12 07:31:20;;;;;;;;;11.67;11.67;;;;;;;;4910399;28;46365;-86
2021/12/12 07:33:47;;;;;;;;;13.00;10.67;;;;;;;;4928668;28;45494;-86
2021/12/12 07:36:13;;;;;;;;;7.67;7.67;;;;;;;;4925986;28;45697;-85
2021/12/12 07:38:42;;;;;;;;;8.00;7.00;;;;;;;;4926221;28;45408;-86
2021/12/12 07:41:07;;;;;;;;;11.67;10.67;;;;;;;;4909299;28;45501;-86
2021/12/12 07:43:33;;;;;;;;;10.00;9.00;;;;;;;;4927365;28;45830;-86
2021/12/12 07:45:59;;;;;;;;;10.00;8.00;;;;;;;;4909398;28;45574;-85
2021/12/12 07:48:25;;;;;;;;;10.00;10.00;;;;;;;;4926908;28;45675;-85
2021/12/12 07:50:51;;;;;;;;;13.00;9.33;;;;;;;;4909469;29;44859;-85
2021/12/12 07:53:17;;;;;;;;;9.33;9.33;;;;;;;;4910935;28;45888;-85
2021/12/12 07:55:42;;;;;;;;;8.67;8.67;;;;;;;;4909715;28;45282;-85
2021/12/12 07:58:09;;;;;;;;;7.00;7.00;;;;;;;;4907293;28;47387;-85
2021/12/12 08:03:38;;;;;;;;;7.00;7.00;;;;;;;;4892166;29;45445;-85
2021/12/12 08:06:05;;;;;;;;;10.00;8.67;;;;;;;;4892401;29;45560;-85
2021/12/12 08:08:31;;;;;;;;;8.33;7.67;;;;;;;;4893473;29;45561;-85
2021/12/12 08:10:58;;;;;;;;;9.33;9.00;;;;;;;;4893933;29;45564;-86
2021/12/12 08:13:23;;;;;;;;;9.00;9.00;;;;;;;;4892264;29;45389;-86
2021/12/12 08:15:50;;;;;;;;;9.00;9.00;;;;;;;;4893882;29;45398;-86
2021/12/12 08:18:16;;;;;;;;;9.00;9.00;;;;;;;;4893902;29;45711;-84
2021/12/12 08:20:43;;;;;;;;;9.00;9.00;;;;;;;;4895904;29;45563;-86
2021/12/12 08:23:09;;;;;;;;;7.67;7.67;;;;;;;;4893955;29;45447;-85
2021/12/12 08:25:36;;;;;;;;;11.33;9.00;;;;;;;;4891973;29;45345;-85
2021/12/12 08:28:04;;;;;;;;;10.67;9.67;;;;;;;;4892339;29;47579;-86
2021/12/12 08:30:30;;;;;;;;;14.67;8.33;;;;;;;;4894210;29;45437;-86
2021/12/12 08:32:55;;;;;;;;;9.33;8.00;;;;;;;;4895950;29;45418;-86
2021/12/12 08:35:22;;;;;;;;;8.33;8.33;;;;;;;;4878543;29;45510;-85
2021/12/12 08:37:48;;;;;;;;;9.00;8.33;;;;;;;;4895284;29;45451;-85
2021/12/12 08:40:18;;;;;;;;;7.33;7.33;;;;;;;;4894427;29;45657;-85
2021/12/12 08:42:44;;;;;;;;;9.00;7.67;;;;;;;;4894924;29;45548;-86
2021/12/12 08:45:12;;;;;;;;;9.67;9.00;;;;;;;;4894959;29;45677;-86
2021/12/12 08:47:37;;;;;;;;;7.00;5.00;;;;;;;;4893796;29;47625;-85
2021/12/12 08:50:12;;;;;;;;;8.67;8.67;;;;;;;;4905178;28;45605;-85
2021/12/12 08:52:44;;;;;;;;;9.00;9.00;;;;;;;;4913580;28;45392;-86
2021/12/12 08:55:15;;;;;;;;;9.00;8.33;;;;;;;;4912090;28;45493;-86
2021/12/12 08:57:52;;;;;;;;;10.00;9.67;;;;;;;;4912098;28;48072;-86
2021/12/12 09:00:19;;;;;;;;;9.00;9.00;;;;;;;;4913159;28;45823;-86
2021/12/12 09:02:45;;;;;;;;;8.00;8.00;;;;;;;;4929642;28;45448;-86
2021/12/12 09:05:16;;;;;;;;;13.67;10.00;;;;;;;;4913591;28;45496;-85
2021/12/12 09:07:44;;;;;;;;;8.00;6.33;;;;;;;;4931127;28;45087;-86
2021/12/12 09:10:21;;;;;;;;;9.00;9.00;;;;;;;;4914744;28;45457;-86
2021/12/12 09:13:07;;;;;;;;;8.00;7.00;;;;;;;;4913364;28;45507;-86
2021/12/12 09:15:38;;;;;;;;;8.33;8.33;;;;;;;;4902223;28;45946;-86
2021/12/12 09:18:06;;;;;;;;;7.67;7.33;;;;;;;;4912905;28;45496;-86
2021/12/12 09:20:36;;;;;;;;;7.33;7.33;;;;;;;;4913885;28;45565;-86
2021/12/12 09:26:10;;;;;;;;;10.33;9.00;;;;;;;;4932530;28;44737;-86
2021/12/12 09:28:39;;;;;;;;;8.33;8.33;;;;;;;;4913683;28;46888;-86
2021/12/12 09:31:06;;;;;;;;;10.33;9.33;;;;;;;;4931241;28;45494;-86
2021/12/12 09:33:52;;;;;;;;;5.67;5.00;;;;;;;;4930112;28;45398;-86
2021/12/12 09:36:28;;;;;;;;;6.00;5.33;;;;;;;;4912401;28;45587;-86
2021/12/12 09:38:56;;;;;;;;;9.67;9.00;;;;;;;;4912636;28;47115;-86
2021/12/12 09:41:45;;;;;;;;;5.00;5.00;;;;;;;;4914404;28;45271;-86
2021/12/12 09:44:14;;;;;;;;;7.00;6.33;;;;;;;;4915189;28;44780;-86
2021/12/12 09:46:57;;;;;;;;;10.33;10.33;;;;;;;;4915267;28;45743;-85
2021/12/12 09:52:38;;;;;;;;;10.00;9.00;;;;;;;;4931607;28;45345;-86
2021/12/12 09:55:09;;;;;;;;;8.67;8.67;;;;;;;;4915025;28;45007;-85
2021/12/12 09:57:41;;;;;;;;;8.33;8.33;;;;;;;;4913518;28;45685;-85
2021/12/12 10:00:32;;;;;;;;;12.67;10.33;;;;;;;;4912518;28;48264;-85
2021/12/12 10:03:17;;;;;;;;;9.67;8.67;;;;;;;;4927285;28;46368;-85
2021/12/12 10:05:42;;;;;;;;;7.33;7.00;;;;;;;;4913382;28;45402;-86
2021/12/12 10:08:23;;;;;;;;;11.00;10.67;;;;;;;;4931404;28;44802;-86
2021/12/12 10:11:01;;;;;;;;;9.67;9.67;;;;;;;;4914272;28;47014;-86
2021/12/12 10:13:47;;;;;;;;;8.00;8.00;;;;;;;;4913904;28;45665;-85
2021/12/12 10:16:12;;;;;;;;;9.00;9.00;;;;;;;;4916180;28;45485;-86
2021/12/12 10:18:51;;;;;;;;;8.33;5.67;;;;;;;;4911615;28;45473;-85
2021/12/12 10:21:39;;;;;;;;;8.00;8.00;;;;;;;;4910858;28;47112;-86
2021/12/12 10:24:07;;;;;;;;;10.00;9.00;;;;;;;;4911496;28;45749;-86
2021/12/12 10:26:44;;;;;;;;;11.33;10.00;;;;;;;;4911956;28;45550;-86
2021/12/12 10:29:17;;;;;;;;;6.00;6.00;;;;;;;;4929359;28;45692;-86
2021/12/12 10:31:46;;;;;;;;;9.33;6.00;;;;;;;;4927880;28;48011;-85
2021/12/12 10:34:17;;;;;;;;;8.00;8.00;;;;;;;;4929728;28;45726;-85
2021/12/12 10:37:03;;;;;;;;;9.67;8.67;;;;;;;;4912205;28;45626;-86
2021/12/12 10:39:33;;;;;;;;;6.67;5.67;;;;;;;;4912125;28;45472;-85
2021/12/12 10:42:01;;;;;;;;;11.67;11.67;;;;;;;;4909254;28;47038;-85
2021/12/12 10:44:29;;;;;;;;;13.33;12.00;;;;;;;;4927300;28;45875;-85
2021/12/12 10:46:58;;;;;;;;;8.67;8.67;;;;;;;;4911314;28;44906;-86
2021/12/12 10:49:36;;;;;;;;;12.00;11.00;;;;;;;;4914249;28;45391;-86
2021/12/12 10:52:10;;;;;;;;;10.33;9.00;;;;;;;;4910295;29;48089;-86
2021/12/12 10:57:40;;;;;;;;;10.00;9.67;;;;;;;;4907760;29;45498;-87
2021/12/12 11:00:08;;;;;;;;;9.00;8.33;;;;;;;;4908160;28;45413;-85
2021/12/12 11:02:41;;;;;;;;;7.33;6.00;;;;;;;;4906628;29;47055;-86
2021/12/12 11:05:12;;;;;;;;;9.00;9.00;;;;;;;;4906611;29;45331;-86
2021/12/12 11:07:46;;;;;;;;;11.67;11.67;;;;;;;;4906055;29;45354;-87
2021/12/12 11:10:23;;;;;;;;;8.67;8.67;;;;;;;;4907400;29;45906;-86
2021/12/12 11:12:55;;;;;;;;;8.33;8.33;;;;;;;;4909709;28;45449;-86
2021/12/12 11:15:34;;;;;;;;;10.00;7.67;;;;;;;;4907937;29;45417;-86
2021/12/12 11:18:14;;;;;;;;;9.00;9.00;;;;;;;;4908507;29;45462;-86
2021/12/12 11:20:43;;;;;;;;;7.67;7.67;;;;;;;;4907900;29;45476;-87
2021/12/12 11:23:28;;;;;;;;;4.33;3.33;;;;;;;;4905886;29;47103;-86
2021/12/12 11:26:00;;;;;;;;;8.67;8.67;;;;;;;;4900210;29;45571;-86
2021/12/12 11:28:33;;;;;;;;;10.67;10.00;;;;;;;;4907677;29;45448;-86
2021/12/12 11:31:05;;;;;;;;;6.00;6.00;;;;;;;;4907112;29;45064;-86
2021/12/12 11:33:33;;;;;;;;;11.00;10.00;;;;;;;;4906518;29;47164;-86
2021/12/12 11:35:59;;;;;;;;;10.33;10.33;;;;;;;;4906281;29;45834;-86
2021/12/12 11:38:37;;;;;;;;;7.67;7.67;;;;;;;;4907150;29;45445;-86
2021/12/12 11:41:25;;;;;;;;;7.33;7.33;;;;;;;;4910650;29;45339;-86
2021/12/12 11:43:59;;;;;;;;;12.67;6.67;;;;;;;;4909902;29;45744;-86
2021/12/12 11:46:44;;;;;;;;;8.33;8.33;;;;;;;;4912365;28;45338;-86
2021/12/12 11:52:15;;;;;;;;;10.33;10.00;;;;;;;;4933585;28;45620;-85
2021/12/12 11:55:00;;;;;;;;;13.33;12.33;;;;;;;;4933853;28;46572;-85
2021/12/12 11:57:32;;;;;;;;;9.00;9.00;;;;;;;;4916837;28;45804;-85
2021/12/12 12:00:02;;;;;;;;;9.00;6.33;;;;;;;;4928484;28;44734;-85
2021/12/12 12:02:39;;;;;;;;;11.67;10.00;;;;;;;;4932042;28;45528;-86
2021/12/12 12:05:14;;;;;;;;;8.67;8.67;;;;;;;;4931437;28;46384;-86
2021/12/12 12:07:56;;;;;;;;;7.00;7.00;;;;;;;;4931324;28;45488;-86
2021/12/12 12:10:22;;;;;;;;;9.00;7.33;;;;;;;;4914004;28;44801;-85
2021/12/12 12:13:05;;;;;;;;;8.67;6.33;;;;;;;;4931772;28;45592;-85
2021/12/12 12:15:36;;;;;;;;;9.33;9.33;;;;;;;;4931358;28;45400;-85
2021/12/12 12:18:04;;;;;;;;;8.33;8.33;;;;;;;;4914265;28;45765;-85
2021/12/12 12:20:29;;;;;;;;;11.33;11.00;;;;;;;;4915494;28;45345;-85
2021/12/12 12:23:17;;;;;;;;;7.00;7.00;;;;;;;;4914140;28;45406;-86
2021/12/12 12:28:34;;;;;;;;;6.00;6.00;;;;;;;;4930005;28;45513;-86
2021/12/12 12:31:19;;;;;;;;;9.33;9.00;;;;;;;;4912886;28;45393;-86
2021/12/12 12:33:51;;;;;;;;;10.00;7.33;;;;;;;;4931329;28;45365;-86
2021/12/12 12:36:36;;;;;;;;;5.67;4.67;;;;;;;;4928898;28;45469;-86
2021/12/12 12:39:20;;;;;;;;;3.00;3.00;;;;;;;;4912722;28;45862;-86
2021/12/12 12:42:04;;;;;;;;;4.67;4.67;;;;;;;;4931163;28;45419;-86
2021/12/12 12:44:48;;;;;;;;;6.00;5.00;;;;;;;;4929219;28;45494;-86
2021/12/12 12:47:32;;;;;;;;;5.67;5.67;;;;;;;;4929682;28;46819;-86
2021/12/12 12:50:16;;;;;;;;;7.00;6.00;;;;;;;;4911191;28;45752;-86
2021/12/12 12:52:44;;;;;;;;;4.67;4.33;;;;;;;;4889137;29;46119;-86
2021/12/12 12:55:29;;;;;;;;;8.00;6.67;;;;;;;;4890292;29;45973;-87
2021/12/12 12:58:06;;;;;;;;;7.00;6.00;;;;;;;;4893115;28;45389;-86
2021/12/12 13:00:37;;;;;;;;;4.75;4.75;;;;;;;;4891059;29;45443;-86
2021/12/12 13:03:09;;;;;;;;;6.00;6.00;;;;;;;;4893098;29;45471;-84
2021/12/12 13:05:53;;;;;;;;;4.00;4.00;;;;;;;;4892575;29;45788;-85
2021/12/12 13:08:33;;;;;;;;;6.00;6.00;;;;;;;;4892385;29;46090;-86
2021/12/12 13:11:01;;;;;;;;;6.00;6.00;;;;;;;;4892553;29;45512;-86
2021/12/12 13:13:39;;;;;;;;;6.67;6.67;;;;;;;;4892370;29;45446;-86
2021/12/12 13:16:14;;;;;;;;;8.67;8.67;;;;;;;;4895248;28;45447;-86
2021/12/12 13:18:54;;;;;;;;;7.33;7.33;;;;;;;;4892903;29;48093;-86
2021/12/12 13:21:26;;;;;;;;;9.33;9.33;;;;;;;;4893366;29;45536;-86
2021/12/12 13:24:00;;;;;;;;;8.67;8.67;;;;;;;;4892914;29;45391;-86
2021/12/12 13:26:25;;;;;;;;;9.00;9.00;;;;;;;;4894804;29;45157;-86
2021/12/12 13:29:02;;;;;;;;;4.67;4.67;;;;;;;;4892926;29;48021;-86
2021/12/12 13:31:40;;;;;;;;;8.33;8.33;;;;;;;;4894737;28;45822;-86
2021/12/12 13:34:11;;;;;;;;;7.33;7.33;;;;;;;;4892874;29;45523;-85
2021/12/12 13:36:50;;;;;;;;;7.33;7.33;;;;;;;;4893934;29;44767;-85
2021/12/12 13:39:34;;;;;;;;;6.00;6.00;;;;;;;;4892456;29;47013;-85
2021/12/12 13:42:21;;;;;;;;;5.00;5.00;;;;;;;;4890332;29;45537;-85
2021/12/12 13:44:49;;;;;;;;;8.67;6.67;;;;;;;;4891123;29;45447;-85
2021/12/12 13:47:14;;;;;;;;;6.67;6.67;;;;;;;;4891995;29;45405;-85
2021/12/12 13:50:03;;;;;;;;;10.00;10.00;;;;;;;;4891609;29;48794;-86
2021/12/12 13:52:35;;;;;;;;;10.33;9.00;;;;;;;;4899462;29;45473;-86
2021/12/12 13:58:22;;;;;;;;;8.67;7.00;;;;;;;;4911541;28;45504;-85
2021/12/12 14:01:02;;;;;;;;;7.00;7.00;;;;;;;;4914623;28;45318;-85
2021/12/12 14:03:33;;;;;;;;;6.33;6.33;;;;;;;;4896679;28;45476;-86
2021/12/12 14:06:01;;;;;;;;;6.00;6.00;;;;;;;;4894495;29;45350;-85
2021/12/12 14:08:29;;;;;;;;;9.67;6.67;;;;;;;;4893135;29;45490;-85
2021/12/12 14:11:00;;;;;;;;;9.00;9.00;;;;;;;;4891671;29;47145;-85
2021/12/12 14:13:29;;;;;;;;;7.00;7.00;;;;;;;;4892055;29;45459;-86
2021/12/12 14:16:01;;;;;;;;;11.00;9.00;;;;;;;;4891689;28;45887;-85
2021/12/12 14:18:30;;;;;;;;;9.67;7.00;;;;;;;;4890671;29;45771;-85
2021/12/12 14:20:55;;;;;;;;;10.33;6.67;;;;;;;;4889976;29;47117;-85
2021/12/12 14:23:26;;;;;;;;;6.67;5.67;;;;;;;;4905932;29;45438;-86
2021/12/12 14:25:53;;;;;;;;;9.67;9.67;;;;;;;;4891230;29;45370;-85
2021/12/12 14:28:22;;;;;;;;;6.67;6.67;;;;;;;;4890512;29;45754;-85
2021/12/12 14:30:49;;;;;;;;;7.33;6.33;;;;;;;;4892287;29;46383;-85
2021/12/12 14:33:23;;;;;;;;;10.00;9.33;;;;;;;;4890746;29;45238;-85
2021/12/12 14:36:05;;;;;;;;;10.00;10.00;;;;;;;;4891252;29;45423;-85
2021/12/12 14:38:31;;;;;;;;;5.33;5.33;;;;;;;;4893977;29;45454;-85
2021/12/12 14:40:59;;;;;;;;;7.00;6.00;;;;;;;;4893441;29;48276;-85
2021/12/12 14:43:28;;;;;;;;;7.00;6.00;;;;;;;;4892848;29;45296;-85
2021/12/12 14:48:58;;;;;;;;;9.33;9.33;;;;;;;;4892531;29;45366;-85
2021/12/12 14:51:27;;;;;;;;;13.33;11.67;;;;;;;;4899967;29;47043;-85
2021/12/12 14:53:54;;;;;;;;;11.00;9.67;;;;;;;;4909260;29;44930;-86
2021/12/12 14:56:25;;;;;;;;;12.67;11.67;;;;;;;;4910433;29;44804;-85
2021/12/12 14:58:56;;;;;;;;;11.67;11.00;;;;;;;;4908389;29;44909;-86
2021/12/12 15:01:22;;;;;;;;;11.00;11.00;;;;;;;;4910256;29;45364;-85
2021/12/12 15:03:50;;;;;;;;;12.33;12.33;;;;;;;;4909053;29;45340;-86
2021/12/12 15:06:19;;;;;;;;;10.33;10.33;;;;;;;;4910670;29;45439;-86
2021/12/12 15:08:53;;;;;;;;;14.33;12.00;;;;;;;;4908668;29;45668;-86
2021/12/12 15:11:20;;;;;;;;;10.33;7.00;;;;;;;;4903912;29;47638;-86
2021/12/12 15:13:47;;;;;;;;;14.33;12.67;;;;;;;;4895128;29;45889;-86
2021/12/12 15:16:15;;;;;;;;;11.67;11.67;;;;;;;;4908244;29;45384;-86
2021/12/12 15:18:42;;;;;;;;;13.00;11.33;;;;;;;;4910348;29;45460;-86
2021/12/12 15:21:09;;;;;;;;;10.67;10.00;;;;;;;;4908991;29;45693;-86
2021/12/12 15:23:38;;;;;;;;;7.67;6.00;;;;;;;;4909243;29;45841;-86
2021/12/12 15:26:12;;;;;;;;;15.67;13.00;;;;;;;;4909193;29;45567;-86
2021/12/12 15:28:39;;;;;;;;;15.67;13.33;;;;;;;;4910705;29;45473;-86
2021/12/12 15:31:07;;;;;;;;;15.33;14.33;;;;;;;;4910317;29;46336;-85
2021/12/12 15:33:34;;;;;;;;;17.67;13.67;;;;;;;;4908395;28;45684;-86
2021/12/12 15:36:03;;;;;;;;;11.33;11.33;;;;;;;;4906346;29;45561;-86
2021/12/12 15:38:29;;;;;;;;;16.00;14.00;;;;;;;;4909911;29;45421;-86
2021/12/12 15:40:57;;;;;;;;;21.33;18.33;;;;;;;;4907142;29;47356;-86